Sahuarita, Arizona
Current Conditions -  °F | °C
As of 8:53 PM on Thursday 18 Dec 2014 (Local Time) from KTUS Reporting Station
Clear Clear  
Wind Chill: 44°   Ceiling: Unl
Heat Index: 47°   Visibility: 10mi
Dew Point: 40°   Wind: 7mph
Humidity: 77%   Direction: 210°SSW
Pressure: 30.19"   Gusts: NA
Location:  31.96°N, 110.96°W
Report Text: KTUS 190353Z 21006KT 10SM CLR 08/04 A3019 RMK AO2 SLP211 T00830044 $
Loading
Personal Weather Stations






























Interactive Weather Map New forecast layout! Learn more

10-Day Weather Forecast

Advertisements
Track Severe Weather on mobile